createdAt,value
2022-12-14T00:01:28.219Z,28.08
2022-12-14T00:06:25.723Z,33.95
2022-12-14T00:08:55.084Z,31.40
2022-12-14T00:11:24.255Z,30.25
2022-12-14T00:13:52.724Z,39.83
2022-12-14T00:16:20.406Z,34.25
2022-12-14T00:18:52.379Z,36.97
2022-12-14T00:21:20.410Z,34.83
2022-12-14T00:23:50.090Z,35.28
2022-12-14T00:28:48.059Z,29.20
2022-12-14T00:31:15.808Z,35.10
2022-12-14T00:33:44.137Z,29.45
2022-12-14T00:36:12.951Z,32.33
2022-12-14T00:38:41.014Z,32.95
2022-12-14T00:41:10.192Z,32.35
2022-12-14T00:43:37.837Z,33.85
2022-12-14T00:46:07.171Z,26.10
2022-12-14T00:48:35.219Z,29.95
2022-12-14T00:51:02.931Z,26.02
2022-12-14T00:53:30.651Z,25.90
2022-12-14T00:55:58.312Z,29.52
2022-12-14T00:58:27.844Z,30.20
2022-12-14T01:01:02.534Z,29.83
2022-12-14T01:03:32.245Z,28.83
2022-12-14T01:06:00.271Z,30.77
2022-12-14T01:08:35.048Z,30.70
2022-12-14T01:11:06.813Z,28.55
2022-12-14T01:13:34.667Z,24.55
2022-12-14T01:16:07.030Z,25.35
2022-12-14T01:18:36.791Z,28.73
2022-12-14T01:21:15.371Z,28.23
2022-12-14T01:23:44.036Z,23.80
2022-12-14T01:26:12.230Z,32.33
2022-12-14T01:28:39.924Z,26.70
2022-12-14T01:31:09.452Z,33.30
2022-12-14T01:36:07.702Z,29.20
2022-12-14T01:38:35.422Z,29.23
2022-12-14T01:41:03.392Z,36.60
2022-12-14T01:43:46.234Z,31.73
2022-12-14T01:46:19.579Z,34.28
2022-12-14T01:48:49.179Z,28.83
2022-12-14T01:53:44.355Z,36.10
2022-12-14T01:56:12.034Z,34.92
2022-12-14T01:58:40.155Z,31.25
2022-12-14T02:01:07.780Z,32.22
2022-12-14T02:03:37.303Z,30.65
2022-12-14T02:06:09.716Z,30.92
2022-12-14T02:08:38.217Z,25.65
2022-12-14T02:11:06.062Z,30.23
2022-12-14T02:13:35.748Z,30.17
2022-12-14T02:18:32.503Z,35.30
2022-12-14T02:21:21.530Z,31.45
2022-12-14T02:24:03.840Z,25.73
2022-12-14T02:27:12.791Z,30.45
2022-12-14T02:29:47.567Z,29.50
2022-12-14T02:32:34.845Z,29.98
2022-12-14T02:35:07.288Z,23.40
2022-12-14T02:37:40.844Z,20.13
2022-12-14T02:40:20.631Z,21.05
2022-12-14T02:42:57.486Z,22.13
2022-12-14T02:45:28.360Z,20.20
2022-12-14T02:48:01.095Z,21.70
2022-12-14T02:50:34.644Z,23.05
2022-12-14T02:53:05.405Z,23.80
2022-12-14T02:55:36.529Z,21.98
2022-12-14T02:58:06.909Z,22.60
2022-12-14T03:00:38.103Z,21.00
2022-12-14T03:03:06.673Z,21.70
2022-12-14T03:05:34.651Z,23.40
2022-12-14T03:08:05.018Z,22.92
2022-12-14T03:10:37.566Z,20.30
2022-12-14T03:13:10.579Z,22.70
2022-12-14T03:15:42.023Z,19.33
2022-12-14T03:18:10.455Z,20.10
2022-12-14T03:20:39.107Z,21.45
2022-12-14T03:23:09.569Z,21.00
2022-12-14T03:25:42.903Z,26.67
2022-12-14T03:28:14.922Z,21.33
2022-12-14T03:31:01.522Z,21.35
2022-12-14T03:33:30.726Z,26.95
2022-12-14T03:36:03.414Z,26.92
2022-12-14T03:38:36.315Z,25.33
2022-12-14T03:41:13.636Z,26.23
2022-12-14T03:43:49.881Z,30.15
2022-12-14T03:46:22.349Z,23.35
2022-12-14T03:48:51.396Z,25.77
2022-12-14T03:51:24.576Z,24.88
2022-12-14T03:53:59.385Z,25.42
2022-12-14T03:56:35.723Z,22.67
2022-12-14T03:59:07.767Z,25.02
2022-12-14T04:01:41.893Z,22.55
2022-12-14T04:04:12.947Z,27.88
2022-12-14T04:06:42.774Z,27.00
2022-12-14T04:09:21.109Z,22.67
2022-12-14T04:12:09.171Z,27.90
2022-12-14T04:14:56.556Z,25.58
2022-12-14T04:17:45.198Z,26.90
2022-12-14T04:20:16.949Z,24.85
2022-12-14T04:22:47.640Z,23.45
2022-12-14T04:25:35.658Z,25.50
2022-12-14T04:28:06.927Z,27.02
2022-12-14T04:30:38.021Z,25.27
2022-12-14T04:33:23.232Z,23.08
2022-12-14T04:35:51.613Z,26.20
2022-12-14T04:38:21.574Z,23.85
2022-12-14T04:40:52.506Z,23.73
2022-12-14T04:43:22.990Z,24.90
2022-12-14T04:45:53.789Z,24.45
2022-12-14T04:48:26.433Z,24.55
2022-12-14T04:50:57.224Z,23.42
2022-12-14T04:53:27.713Z,25.52
2022-12-14T04:56:00.894Z,23.00
2022-12-14T04:58:30.198Z,23.45
2022-12-14T05:01:15.980Z,25.70
2022-12-14T05:03:51.405Z,23.63
2022-12-14T05:06:23.584Z,27.63
2022-12-14T05:09:14.059Z,23.90
2022-12-14T05:11:59.257Z,23.30
2022-12-14T05:14:34.739Z,25.42
2022-12-14T05:17:08.384Z,27.48
2022-12-14T05:19:38.812Z,22.63
2022-12-14T05:22:08.385Z,25.52
2022-12-14T05:27:03.456Z,23.27
2022-12-14T05:29:31.124Z,22.38
2022-12-14T05:31:58.753Z,21.17
2022-12-14T05:34:26.376Z,21.60
2022-12-14T05:36:55.503Z,25.13
2022-12-14T05:39:23.154Z,26.83
2022-12-14T05:41:50.780Z,25.00
2022-12-14T05:44:18.421Z,22.27
2022-12-14T05:46:46.028Z,22.00
2022-12-14T05:49:13.714Z,21.60
2022-12-14T05:51:41.364Z,19.33
2022-12-14T05:54:10.377Z,20.48
2022-12-14T05:56:37.984Z,20.25
2022-12-14T05:59:05.632Z,19.00
2022-12-14T06:01:33.317Z,21.65
2022-12-14T06:04:00.952Z,19.35
2022-12-14T06:06:28.613Z,16.75
2022-12-14T06:08:56.332Z,17.73
2022-12-14T06:11:25.566Z,19.05
2022-12-14T06:13:53.338Z,21.80
2022-12-14T06:16:23.274Z,19.45
2022-12-14T06:18:52.705Z,20.45
2022-12-14T06:21:21.748Z,18.67
2022-12-14T06:23:49.359Z,22.98
2022-12-14T06:26:17.649Z,16.45
2022-12-14T06:28:46.685Z,19.52
2022-12-14T06:31:16.731Z,18.90
2022-12-14T06:33:44.711Z,21.05
2022-12-14T06:36:17.885Z,18.45
2022-12-14T06:38:45.531Z,19.80
2022-12-14T06:41:13.337Z,19.58
2022-12-14T06:43:41.003Z,20.42
2022-12-14T06:46:15.070Z,19.15
2022-12-14T06:48:43.371Z,20.77
2022-12-14T06:51:11.745Z,20.67
2022-12-14T06:53:39.374Z,26.15
2022-12-14T06:56:08.538Z,22.08
2022-12-14T06:58:36.488Z,23.80
2022-12-14T07:01:04.427Z,22.92
2022-12-14T07:03:33.583Z,21.65
2022-12-14T07:06:02.464Z,18.30
2022-12-14T07:08:31.200Z,24.95
2022-12-14T07:11:02.759Z,21.45
2022-12-14T07:13:30.827Z,20.23
2022-12-14T07:15:59.847Z,23.70
2022-12-14T07:18:28.109Z,23.50
2022-12-14T07:20:58.448Z,19.92
2022-12-14T07:23:28.138Z,24.23
2022-12-14T07:26:01.944Z,19.05
2022-12-14T07:28:30.255Z,24.50
2022-12-14T07:30:58.767Z,19.67
2022-12-14T07:33:27.905Z,22.47
2022-12-14T07:36:04.381Z,17.92
2022-12-14T07:38:32.131Z,19.17
2022-12-14T07:41:04.469Z,18.50
2022-12-14T07:43:32.019Z,21.35
2022-12-14T07:46:03.960Z,23.05
2022-12-14T07:48:32.026Z,20.50
2022-12-14T07:51:06.006Z,19.83
2022-12-14T07:53:34.124Z,26.15
2022-12-14T07:56:03.732Z,23.67
2022-12-14T08:01:09.497Z,24.25
2022-12-14T08:03:37.210Z,21.73
2022-12-14T08:06:07.383Z,22.85
2022-12-14T08:08:35.656Z,22.13
2022-12-14T08:11:03.617Z,21.23
2022-12-14T08:13:32.052Z,22.30
2022-12-14T08:16:03.748Z,25.27
2022-12-14T08:18:31.459Z,29.05
2022-12-14T08:20:59.025Z,23.52
2022-12-14T08:23:28.496Z,22.10
2022-12-14T08:25:56.808Z,21.63
2022-12-14T08:28:25.124Z,22.45
2022-12-14T08:30:53.059Z,23.15
2022-12-14T08:33:21.454Z,25.00
2022-12-14T08:35:49.363Z,25.35
2022-12-14T08:38:17.176Z,23.05
2022-12-14T08:40:46.169Z,27.85
2022-12-14T08:43:13.754Z,22.02
2022-12-14T08:45:41.399Z,24.00
2022-12-14T08:48:10.025Z,23.17
2022-12-14T08:50:37.641Z,16.07
2022-12-14T08:53:05.251Z,23.50
2022-12-14T08:55:38.281Z,21.75
2022-12-14T08:58:07.915Z,23.63
2022-12-14T09:00:35.590Z,24.17
2022-12-14T09:03:03.388Z,24.48
2022-12-14T09:05:31.059Z,27.70
2022-12-14T09:07:58.722Z,30.02
2022-12-14T09:10:26.418Z,25.38
2022-12-14T09:12:54.067Z,28.77
2022-12-14T09:15:23.303Z,26.08
2022-12-14T09:17:50.918Z,26.17
2022-12-14T09:20:19.026Z,24.38
2022-12-14T09:22:46.816Z,27.77
2022-12-14T09:25:14.391Z,24.70
2022-12-14T09:27:41.981Z,28.45
2022-12-14T09:30:10.326Z,26.40
2022-12-14T09:32:41.113Z,27.05
2022-12-14T09:35:09.271Z,28.60
2022-12-14T09:37:38.023Z,31.67
2022-12-14T09:40:06.730Z,40.65
2022-12-14T09:42:50.714Z,38.47
2022-12-14T09:45:22.058Z,36.67
2022-12-14T09:47:56.110Z,35.42
2022-12-14T09:50:25.247Z,35.47
2022-12-14T09:52:54.411Z,34.60
2022-12-14T09:55:26.184Z,29.42
2022-12-14T09:57:58.503Z,38.80
2022-12-14T10:00:26.879Z,30.17
2022-12-14T10:03:14.470Z,34.08
2022-12-14T10:05:50.029Z,30.65
2022-12-14T10:08:22.579Z,37.08
2022-12-14T10:13:29.630Z,29.48
2022-12-14T10:23:53.959Z,29.13
2022-12-14T10:26:24.387Z,29.55
2022-12-14T10:29:01.272Z,32.47
2022-12-14T10:31:34.448Z,33.70
2022-12-14T10:34:13.881Z,35.65
2022-12-14T10:36:52.792Z,33.63
2022-12-14T10:39:33.052Z,30.02
2022-12-14T10:42:04.515Z,33.00
2022-12-14T10:44:39.908Z,37.47
2022-12-14T10:52:12.286Z,29.17
2022-12-14T10:57:07.835Z,29.80
2022-12-14T10:59:41.410Z,26.60
2022-12-14T11:02:17.113Z,25.27
2022-12-14T11:04:54.520Z,26.65
2022-12-14T11:07:23.696Z,23.98
2022-12-14T11:09:51.431Z,26.52
2022-12-14T11:12:21.817Z,24.60
2022-12-14T11:14:54.847Z,22.83
2022-12-14T11:17:37.406Z,27.95
2022-12-14T11:20:19.479Z,23.35
2022-12-14T11:22:48.979Z,22.80
2022-12-14T11:25:29.997Z,23.05
2022-12-14T11:27:57.829Z,20.38
2022-12-14T11:30:25.496Z,15.77
2022-12-14T11:32:53.434Z,18.33
2022-12-14T11:35:22.461Z,20.55
2022-12-14T11:37:50.525Z,16.02
2022-12-14T11:40:22.760Z,19.20
2022-12-14T11:42:51.606Z,20.75
2022-12-14T11:45:30.422Z,18.05
2022-12-14T11:48:21.044Z,19.15
2022-12-14T11:50:50.959Z,20.30
2022-12-14T11:53:20.180Z,21.45
2022-12-14T11:55:51.332Z,20.73
2022-12-14T12:03:17.491Z,12.18
2022-12-14T12:05:45.707Z,11.18
2022-12-14T12:08:24.286Z,11.15
2022-12-14T12:10:53.143Z,11.65
2022-12-14T12:13:24.925Z,11.70
2022-12-14T12:15:55.586Z,11.77
2022-12-14T12:18:27.990Z,10.80
2022-12-14T13:11:17.264Z,12.82
2022-12-14T13:13:36.002Z,14.23
2022-12-14T13:16:12.633Z,12.73
2022-12-14T13:19:04.457Z,13.15
2022-12-14T13:21:32.759Z,10.98
2022-12-14T13:24:00.627Z,12.88
2022-12-14T13:26:57.715Z,13.85
2022-12-14T13:29:40.332Z,17.02
2022-12-14T13:32:12.137Z,14.00
2022-12-14T13:34:52.117Z,14.45
2022-12-14T13:37:44.690Z,12.85
2022-12-14T13:40:50.385Z,13.32
2022-12-14T13:43:28.762Z,17.65
2022-12-14T13:45:57.945Z,17.83
2022-12-14T13:48:27.812Z,13.88
2022-12-14T13:51:01.970Z,17.15
2022-12-14T13:53:32.751Z,16.33
2022-12-14T13:56:02.234Z,15.45
2022-12-14T13:58:34.798Z,14.70
2022-12-14T14:01:07.383Z,13.98
2022-12-14T14:03:46.998Z,16.77
2022-12-14T14:08:48.966Z,16.90
2022-12-14T14:11:46.603Z,14.57
2022-12-14T14:14:21.268Z,16.90
2022-12-14T14:16:52.069Z,14.00
2022-12-14T14:19:22.915Z,16.45
2022-12-14T14:22:25.768Z,14.00
2022-12-14T14:24:59.498Z,13.13
2022-12-14T14:27:29.688Z,15.65
2022-12-14T14:29:58.792Z,16.75
2022-12-14T14:32:35.958Z,11.80
2022-12-14T14:35:04.899Z,11.55
2022-12-14T14:37:33.701Z,11.05
2022-12-14T14:40:20.767Z,13.10
2022-12-14T14:42:54.496Z,15.13
2022-12-14T14:45:29.793Z,11.48
2022-12-14T14:48:00.550Z,12.95
2022-12-14T14:50:31.359Z,11.20
2022-12-14T14:53:02.276Z,11.00
2022-12-14T14:56:01.204Z,11.70
2022-12-14T14:58:35.176Z,14.32
2022-12-14T15:01:09.503Z,12.02
2022-12-14T15:03:45.998Z,10.77
2022-12-14T15:06:15.605Z,10.90
2022-12-14T15:08:45.819Z,13.18
2022-12-14T15:11:16.656Z,12.07
2022-12-14T15:13:47.315Z,13.05
2022-12-14T15:16:23.383Z,13.68
2022-12-14T15:18:52.442Z,13.80
2022-12-14T15:21:20.557Z,12.15
2022-12-14T15:23:50.476Z,13.82
2022-12-14T15:26:21.235Z,12.40
2022-12-14T15:28:53.863Z,14.20
2022-12-14T15:31:29.315Z,13.88
2022-12-14T15:33:59.017Z,14.40
2022-12-14T15:36:29.887Z,12.82
2022-12-14T15:38:58.741Z,16.25
2022-12-14T15:41:28.807Z,16.85
2022-12-14T15:44:00.013Z,17.63
2022-12-14T15:46:29.743Z,17.60
2022-12-14T15:49:00.412Z,19.45
2022-12-14T15:51:30.353Z,15.90
2022-12-14T15:53:58.767Z,18.83
2022-12-14T15:56:28.720Z,19.40
2022-12-14T15:58:57.664Z,18.65
2022-12-14T16:01:27.781Z,18.17
2022-12-14T16:03:59.554Z,17.60
2022-12-14T16:06:28.985Z,17.15
2022-12-14T16:08:58.756Z,26.25
2022-12-14T16:11:28.952Z,23.63
2022-12-14T16:13:57.492Z,23.33
2022-12-14T16:16:25.179Z,23.40
2022-12-14T16:18:53.040Z,21.50
2022-12-14T16:21:28.956Z,21.45
2022-12-14T16:23:57.483Z,18.50
2022-12-14T16:26:26.675Z,21.23
2022-12-14T16:29:08.877Z,20.70
2022-12-14T16:31:37.868Z,20.95
2022-12-14T16:34:09.325Z,20.17
2022-12-14T16:36:38.525Z,19.92
2022-12-14T16:39:07.834Z,19.73
2022-12-14T16:41:36.875Z,18.90
2022-12-14T16:44:05.566Z,22.08
2022-12-14T16:46:33.298Z,18.23
2022-12-14T16:49:20.878Z,18.25
2022-12-14T16:52:07.323Z,20.65
2022-12-14T16:54:35.911Z,21.67
2022-12-14T16:57:07.850Z,23.10
2022-12-14T16:59:41.090Z,22.55
2022-12-14T17:02:28.608Z,25.67
2022-12-14T17:04:57.289Z,24.48
2022-12-14T17:07:28.015Z,25.58
2022-12-14T17:09:56.914Z,24.90
2022-12-14T17:12:26.113Z,23.85
2022-12-14T17:14:54.106Z,22.13
2022-12-14T17:17:23.576Z,22.33
2022-12-14T17:19:51.301Z,20.67
2022-12-14T17:22:21.408Z,19.83
2022-12-14T17:24:50.392Z,20.88
2022-12-14T17:27:18.814Z,24.45
2022-12-14T17:29:46.501Z,22.52
2022-12-14T17:32:15.547Z,26.38
2022-12-14T17:34:45.356Z,31.88
2022-12-14T17:37:16.196Z,29.85
2022-12-14T17:39:43.793Z,42.33
2022-12-14T17:42:14.765Z,29.48
2022-12-14T17:44:43.575Z,19.15
2022-12-14T17:47:13.040Z,16.57
2022-12-14T17:49:42.231Z,17.20
2022-12-14T17:52:18.321Z,17.13
2022-12-14T17:54:46.359Z,18.67
2022-12-14T17:57:18.338Z,17.70
2022-12-14T17:59:47.678Z,14.98
2022-12-14T18:02:27.012Z,12.80
2022-12-14T18:04:54.748Z,10.70
2022-12-14T18:07:22.429Z,10.50
2022-12-14T18:09:52.918Z,10.43
2022-12-14T18:12:24.166Z,10.18
2022-12-14T18:14:52.317Z,10.20
2022-12-14T18:17:20.108Z,14.82
2022-12-14T18:19:49.605Z,10.80
2022-12-14T18:24:45.856Z,12.25
2022-12-14T18:27:15.293Z,10.82
2022-12-14T18:29:44.275Z,13.23
2022-12-14T18:32:14.036Z,16.65
2022-12-14T18:34:41.702Z,11.63
2022-12-14T18:37:09.451Z,14.20
2022-12-14T18:39:37.086Z,10.48
2022-12-14T18:42:05.245Z,10.55
2022-12-14T18:44:32.850Z,9.13
2022-12-14T18:47:20.505Z,6.40
2022-12-14T18:49:49.457Z,4.70
2022-12-14T18:52:17.096Z,4.43
2022-12-14T18:54:44.681Z,3.92
2022-12-14T18:57:12.275Z,3.20
2022-12-14T18:59:42.587Z,1.70
2022-12-14T19:02:15.057Z,2.35
2022-12-14T19:04:42.804Z,1.48
2022-12-14T19:07:10.539Z,1.90
2022-12-14T19:09:38.149Z,2.20
2022-12-14T19:12:06.114Z,1.63
2022-12-14T19:14:34.028Z,1.67
2022-12-14T19:17:01.650Z,0.68
2022-12-14T19:19:36.766Z,0.93
2022-12-14T19:22:09.063Z,3.00
2022-12-14T19:24:36.839Z,0.70
2022-12-14T19:27:06.326Z,0.40
2022-12-14T19:29:35.411Z,1.33
2022-12-14T19:32:05.555Z,1.80
2022-12-14T19:34:35.022Z,2.80
2022-12-14T19:37:02.641Z,1.60
2022-12-14T19:39:30.343Z,1.55
2022-12-14T19:41:57.945Z,2.00
2022-12-14T19:44:25.571Z,2.58
2022-12-14T19:46:53.226Z,1.55
2022-12-14T19:49:22.367Z,1.85
2022-12-14T19:51:51.338Z,1.17
2022-12-14T19:54:19.001Z,1.42
2022-12-14T19:56:46.525Z,1.20
2022-12-14T19:59:16.863Z,1.40
2022-12-14T20:01:48.025Z,1.52
2022-12-14T20:04:16.391Z,1.65
2022-12-14T20:06:44.171Z,1.13
2022-12-14T20:09:16.311Z,1.83
2022-12-14T20:11:44.758Z,3.00
2022-12-14T20:14:13.227Z,1.85
2022-12-14T20:16:40.951Z,3.33
2022-12-14T20:19:08.783Z,3.25
2022-12-14T20:21:36.424Z,6.07
2022-12-14T20:24:04.440Z,6.80
2022-12-14T20:26:33.421Z,7.03
2022-12-14T20:29:05.053Z,5.55
2022-12-14T20:31:33.107Z,2.53
2022-12-14T20:34:01.572Z,2.85
2022-12-14T20:36:29.251Z,4.35
2022-12-14T20:38:57.754Z,3.47
2022-12-14T20:41:26.197Z,1.30
2022-12-14T20:43:55.202Z,2.92
2022-12-14T20:46:26.227Z,1.17
2022-12-14T20:48:53.940Z,4.45
2022-12-14T20:51:21.822Z,3.40
2022-12-14T20:53:49.531Z,9.85
2022-12-14T20:56:17.095Z,8.52
2022-12-14T20:58:48.795Z,10.13
2022-12-14T21:01:18.885Z,13.35
2022-12-14T21:03:47.378Z,12.80
2022-12-14T21:06:16.365Z,14.20
2022-12-14T21:09:01.525Z,12.38
2022-12-14T21:11:46.791Z,13.77
2022-12-14T21:14:15.089Z,13.50
2022-12-14T21:16:44.227Z,11.38
2022-12-14T21:19:12.403Z,22.42
2022-12-14T21:21:40.396Z,17.42
2022-12-14T21:24:09.536Z,14.30
2022-12-14T21:26:37.874Z,20.40
2022-12-14T21:29:06.003Z,13.82
2022-12-14T21:31:34.000Z,8.60
2022-12-14T21:34:03.088Z,9.00
2022-12-14T21:36:30.973Z,7.57
2022-12-14T21:38:58.567Z,5.60
2022-12-14T21:41:43.703Z,3.47
2022-12-14T21:44:11.275Z,3.50
2022-12-14T21:46:38.981Z,4.25
2022-12-14T21:49:08.280Z,3.47
2022-12-14T21:51:36.117Z,8.55
2022-12-14T21:54:04.296Z,11.45
2022-12-14T21:56:50.675Z,11.25
2022-12-14T21:59:20.112Z,9.95
2022-12-14T22:01:47.968Z,7.32
2022-12-14T22:04:17.084Z,8.35
2022-12-14T22:06:45.126Z,9.25
2022-12-14T22:09:12.755Z,7.05
2022-12-14T22:11:40.313Z,5.50
2022-12-14T22:14:08.000Z,5.45
2022-12-14T22:16:35.668Z,3.97
2022-12-14T22:19:03.334Z,5.07
2022-12-14T22:21:32.546Z,3.17
2022-12-14T22:24:00.133Z,4.85
2022-12-14T22:26:27.696Z,7.53
2022-12-14T22:28:55.348Z,6.07
2022-12-14T22:31:23.058Z,8.43
2022-12-14T22:33:51.202Z,5.88
2022-12-14T22:36:19.192Z,5.25
2022-12-14T22:38:48.171Z,7.03
2022-12-14T22:41:17.009Z,7.75
2022-12-14T22:43:45.179Z,5.00
2022-12-14T22:46:14.186Z,3.88
2022-12-14T22:48:42.267Z,8.32
2022-12-14T22:51:13.763Z,6.53
2022-12-14T22:53:41.624Z,5.65
2022-12-14T22:56:16.331Z,6.78
2022-12-14T22:58:53.482Z,6.70
2022-12-14T23:01:21.417Z,6.57
2022-12-14T23:03:49.364Z,9.30
2022-12-14T23:06:19.105Z,6.13
2022-12-14T23:11:51.435Z,6.15
2022-12-14T23:14:36.998Z,6.68
2022-12-14T23:17:22.252Z,6.65
2022-12-14T23:20:07.486Z,7.95
2022-12-14T23:22:52.751Z,7.40
2022-12-14T23:25:38.169Z,7.03
2022-12-14T23:28:24.866Z,6.32
2022-12-14T23:31:10.272Z,3.92
2022-12-14T23:33:55.677Z,4.07
2022-12-14T23:36:41.468Z,4.47
2022-12-14T23:39:26.806Z,5.15
2022-12-14T23:42:12.137Z,6.15
2022-12-14T23:44:58.702Z,4.18
2022-12-14T23:47:44.066Z,5.90
2022-12-14T23:50:29.319Z,5.15
2022-12-14T23:53:14.700Z,5.38
2022-12-14T23:55:59.944Z,4.43
2022-12-14T23:58:45.252Z,6.68
